sensor_id;sensor_type;location;lat;lon;timestamp;P1;durP1;ratioP1;P2;durP2;ratioP2
52468;SDS011;38381;53.688;10.776;2023-02-22T00:02:31;7.25;;;3.22;;
52468;SDS011;38381;53.688;10.776;2023-02-22T00:07:33;6.73;;;3.43;;
52468;SDS011;38381;53.688;10.776;2023-02-22T00:12:34;6.40;;;3.10;;
52468;SDS011;38381;53.688;10.776;2023-02-22T00:17:35;7.85;;;3.97;;
52468;SDS011;38381;53.688;10.776;2023-02-22T00:22:35;5.97;;;3.60;;
52468;SDS011;38381;53.688;10.776;2023-02-22T00:27:36;5.25;;;3.60;;
52468;SDS011;38381;53.688;10.776;2023-02-22T00:32:37;7.55;;;4.25;;
52468;SDS011;38381;53.688;10.776;2023-02-22T00:37:37;8.70;;;3.33;;
52468;SDS011;38381;53.688;10.776;2023-02-22T00:42:40;5.10;;;3.70;;
52468;SDS011;38381;53.688;10.776;2023-02-22T00:47:41;6.20;;;4.40;;
52468;SDS011;38381;53.688;10.776;2023-02-22T00:52:41;5.38;;;3.42;;
52468;SDS011;38381;53.688;10.776;2023-02-22T00:57:42;5.38;;;3.20;;
52468;SDS011;38381;53.688;10.776;2023-02-22T01:02:42;5.72;;;3.65;;
52468;SDS011;38381;53.688;10.776;2023-02-22T01:07:44;6.90;;;4.07;;
52468;SDS011;38381;53.688;10.776;2023-02-22T01:12:45;8.15;;;3.95;;
52468;SDS011;38381;53.688;10.776;2023-02-22T01:17:46;11.18;;;4.13;;
52468;SDS011;38381;53.688;10.776;2023-02-22T01:22:48;6.80;;;3.53;;
52468;SDS011;38381;53.688;10.776;2023-02-22T01:27:50;4.63;;;4.13;;
52468;SDS011;38381;53.688;10.776;2023-02-22T01:32:51;8.13;;;3.58;;
52468;SDS011;38381;53.688;10.776;2023-02-22T01:37:52;11.27;;;4.22;;
52468;SDS011;38381;53.688;10.776;2023-02-22T01:42:53;9.45;;;4.70;;
52468;SDS011;38381;53.688;10.776;2023-02-22T01:47:59;8.63;;;4.40;;
52468;SDS011;38381;53.688;10.776;2023-02-22T01:53:22;8.07;;;4.85;;
52468;SDS011;38381;53.688;10.776;2023-02-22T01:58:27;5.25;;;3.65;;
52468;SDS011;38381;53.688;10.776;2023-02-22T02:03:32;12.32;;;4.18;;
52468;SDS011;38381;53.688;10.776;2023-02-22T02:08:37;8.10;;;4.18;;
52468;SDS011;38381;53.688;10.776;2023-02-22T02:13:49;9.35;;;4.40;;
52468;SDS011;38381;53.688;10.776;2023-02-22T02:18:51;5.90;;;4.28;;
52468;SDS011;38381;53.688;10.776;2023-02-22T02:45:17;8.02;;;4.00;;
52468;SDS011;38381;53.688;10.776;2023-02-22T02:50:24;8.18;;;4.35;;
52468;SDS011;38381;53.688;10.776;2023-02-22T02:55:32;5.10;;;3.80;;
52468;SDS011;38381;53.688;10.776;2023-02-22T03:00:37;5.80;;;3.83;;
52468;SDS011;38381;53.688;10.776;2023-02-22T03:05:53;6.32;;;3.85;;
52468;SDS011;38381;53.688;10.776;2023-02-22T03:11:07;7.35;;;4.60;;
52468;SDS011;38381;53.688;10.776;2023-02-22T03:16:38;9.68;;;5.35;;
52468;SDS011;38381;53.688;10.776;2023-02-22T03:21:56;14.80;;;4.65;;
52468;SDS011;38381;53.688;10.776;2023-02-22T03:27:06;5.78;;;4.38;;
52468;SDS011;38381;53.688;10.776;2023-02-22T03:32:13;9.98;;;4.75;;
52468;SDS011;38381;53.688;10.776;2023-02-22T03:37:17;7.22;;;4.13;;
52468;SDS011;38381;53.688;10.776;2023-02-22T03:42:25;6.60;;;3.85;;
52468;SDS011;38381;53.688;10.776;2023-02-22T03:47:34;6.97;;;4.05;;
52468;SDS011;38381;53.688;10.776;2023-02-22T03:52:39;7.00;;;3.67;;
52468;SDS011;38381;53.688;10.776;2023-02-22T03:57:49;15.38;;;6.22;;
52468;SDS011;38381;53.688;10.776;2023-02-22T04:02:53;6.00;;;4.28;;
52468;SDS011;38381;53.688;10.776;2023-02-22T04:07:54;8.18;;;4.00;;
52468;SDS011;38381;53.688;10.776;2023-02-22T04:12:55;8.38;;;3.72;;
52468;SDS011;38381;53.688;10.776;2023-02-22T04:17:56;11.83;;;6.70;;
52468;SDS011;38381;53.688;10.776;2023-02-22T04:22:56;6.18;;;4.05;;
52468;SDS011;38381;53.688;10.776;2023-02-22T04:27:57;6.50;;;3.28;;
52468;SDS011;38381;53.688;10.776;2023-02-22T04:32:57;10.68;;;3.50;;
52468;SDS011;38381;53.688;10.776;2023-02-22T04:37:57;6.95;;;5.13;;
52468;SDS011;38381;53.688;10.776;2023-02-22T04:42:58;9.88;;;4.57;;
52468;SDS011;38381;53.688;10.776;2023-02-22T04:47:59;10.63;;;4.30;;
52468;SDS011;38381;53.688;10.776;2023-02-22T04:52:59;8.75;;;3.95;;
52468;SDS011;38381;53.688;10.776;2023-02-22T04:58:00;8.02;;;4.80;;
52468;SDS011;38381;53.688;10.776;2023-02-22T05:03:01;9.35;;;3.97;;
52468;SDS011;38381;53.688;10.776;2023-02-22T05:08:01;5.40;;;3.40;;
52468;SDS011;38381;53.688;10.776;2023-02-22T05:13:03;7.75;;;4.05;;
52468;SDS011;38381;53.688;10.776;2023-02-22T05:18:05;6.10;;;3.93;;
52468;SDS011;38381;53.688;10.776;2023-02-22T05:23:05;9.43;;;4.72;;
52468;SDS011;38381;53.688;10.776;2023-02-22T05:28:08;7.63;;;3.22;;
52468;SDS011;38381;53.688;10.776;2023-02-22T05:33:11;8.52;;;3.80;;
52468;SDS011;38381;53.688;10.776;2023-02-22T05:38:12;7.32;;;3.83;;
52468;SDS011;38381;53.688;10.776;2023-02-22T05:43:14;12.60;;;3.83;;
52468;SDS011;38381;53.688;10.776;2023-02-22T05:48:14;7.97;;;3.65;;
52468;SDS011;38381;53.688;10.776;2023-02-22T05:53:15;6.05;;;4.80;;
52468;SDS011;38381;53.688;10.776;2023-02-22T05:58:15;6.82;;;3.65;;
52468;SDS011;38381;53.688;10.776;2023-02-22T06:03:16;10.07;;;5.18;;
52468;SDS011;38381;53.688;10.776;2023-02-22T06:08:17;7.78;;;4.63;;
52468;SDS011;38381;53.688;10.776;2023-02-22T06:13:17;11.40;;;6.13;;
52468;SDS011;38381;53.688;10.776;2023-02-22T06:18:17;6.32;;;4.43;;
52468;SDS011;38381;53.688;10.776;2023-02-22T06:23:18;11.93;;;4.38;;
52468;SDS011;38381;53.688;10.776;2023-02-22T06:28:18;6.88;;;5.22;;
52468;SDS011;38381;53.688;10.776;2023-02-22T06:33:19;6.60;;;5.18;;
52468;SDS011;38381;53.688;10.776;2023-02-22T06:38:20;10.50;;;5.95;;
52468;SDS011;38381;53.688;10.776;2023-02-22T06:43:24;9.32;;;5.47;;
52468;SDS011;38381;53.688;10.776;2023-02-22T06:48:24;8.88;;;4.82;;
52468;SDS011;38381;53.688;10.776;2023-02-22T06:53:25;9.95;;;5.35;;
52468;SDS011;38381;53.688;10.776;2023-02-22T06:58:25;6.72;;;4.90;;
52468;SDS011;38381;53.688;10.776;2023-02-22T07:03:26;8.73;;;5.85;;
52468;SDS011;38381;53.688;10.776;2023-02-22T07:08:27;7.95;;;4.80;;
52468;SDS011;38381;53.688;10.776;2023-02-22T07:13:28;14.02;;;5.63;;
52468;SDS011;38381;53.688;10.776;2023-02-22T07:18:28;7.70;;;5.13;;
52468;SDS011;38381;53.688;10.776;2023-02-22T07:23:29;13.20;;;6.93;;
52468;SDS011;38381;53.688;10.776;2023-02-22T07:28:29;11.73;;;5.78;;
52468;SDS011;38381;53.688;10.776;2023-02-22T07:33:30;7.40;;;5.15;;
52468;SDS011;38381;53.688;10.776;2023-02-22T07:38:30;8.50;;;5.72;;
52468;SDS011;38381;53.688;10.776;2023-02-22T07:43:31;8.68;;;5.32;;
52468;SDS011;38381;53.688;10.776;2023-02-22T07:48:32;11.05;;;5.25;;
52468;SDS011;38381;53.688;10.776;2023-02-22T07:53:32;6.72;;;5.50;;
52468;SDS011;38381;53.688;10.776;2023-02-22T07:58:33;7.95;;;5.85;;
52468;SDS011;38381;53.688;10.776;2023-02-22T08:03:34;9.13;;;6.18;;
52468;SDS011;38381;53.688;10.776;2023-02-22T08:08:35;11.98;;;6.72;;
52468;SDS011;38381;53.688;10.776;2023-02-22T08:13:35;10.57;;;6.55;;
52468;SDS011;38381;53.688;10.776;2023-02-22T08:18:38;9.90;;;5.25;;
52468;SDS011;38381;53.688;10.776;2023-02-22T08:23:40;9.00;;;6.43;;
52468;SDS011;38381;53.688;10.776;2023-02-22T08:28:40;11.15;;;7.78;;
52468;SDS011;38381;53.688;10.776;2023-02-22T08:33:40;8.63;;;6.18;;
52468;SDS011;38381;53.688;10.776;2023-02-22T08:38:41;9.20;;;6.07;;
52468;SDS011;38381;53.688;10.776;2023-02-22T08:43:42;11.25;;;6.65;;
52468;SDS011;38381;53.688;10.776;2023-02-22T08:48:49;9.90;;;6.97;;
52468;SDS011;38381;53.688;10.776;2023-02-22T08:53:50;9.18;;;6.90;;
52468;SDS011;38381;53.688;10.776;2023-02-22T08:58:52;7.80;;;5.90;;
52468;SDS011;38381;53.688;10.776;2023-02-22T09:03:53;6.63;;;5.63;;
52468;SDS011;38381;53.688;10.776;2023-02-22T09:08:55;8.65;;;6.35;;
52468;SDS011;38381;53.688;10.776;2023-02-22T09:13:55;12.18;;;7.72;;
52468;SDS011;38381;53.688;10.776;2023-02-22T09:18:56;11.27;;;7.20;;
52468;SDS011;38381;53.688;10.776;2023-02-22T09:23:56;15.05;;;7.75;;
52468;SDS011;38381;53.688;10.776;2023-02-22T09:28:57;11.75;;;7.88;;
52468;SDS011;38381;53.688;10.776;2023-02-22T09:33:57;13.55;;;9.20;;
52468;SDS011;38381;53.688;10.776;2023-02-22T09:38:59;12.63;;;8.77;;
52468;SDS011;38381;53.688;10.776;2023-02-22T09:44:06;13.93;;;8.93;;
52468;SDS011;38381;53.688;10.776;2023-02-22T09:49:39;12.48;;;8.80;;
52468;SDS011;38381;53.688;10.776;2023-02-22T09:54:56;15.98;;;10.25;;
52468;SDS011;38381;53.688;10.776;2023-02-22T10:00:11;15.75;;;8.20;;
52468;SDS011;38381;53.688;10.776;2023-02-22T10:05:21;12.20;;;9.38;;
52468;SDS011;38381;53.688;10.776;2023-02-22T10:10:28;11.65;;;9.55;;
52468;SDS011;38381;53.688;10.776;2023-02-22T10:15:35;10.55;;;8.05;;
52468;SDS011;38381;53.688;10.776;2023-02-22T10:21:16;12.00;;;9.25;;
52468;SDS011;38381;53.688;10.776;2023-02-22T10:26:42;18.23;;;9.40;;
52468;SDS011;38381;53.688;10.776;2023-02-22T10:31:45;12.70;;;7.68;;
52468;SDS011;38381;53.688;10.776;2023-02-22T10:37:03;12.50;;;7.75;;
52468;SDS011;38381;53.688;10.776;2023-02-22T10:42:25;9.80;;;7.25;;
52468;SDS011;38381;53.688;10.776;2023-02-22T10:47:27;10.38;;;7.32;;
52468;SDS011;38381;53.688;10.776;2023-02-22T10:52:30;12.02;;;7.38;;
52468;SDS011;38381;53.688;10.776;2023-02-22T10:57:34;10.52;;;7.45;;
52468;SDS011;38381;53.688;10.776;2023-02-22T11:02:36;11.88;;;8.38;;
52468;SDS011;38381;53.688;10.776;2023-02-22T11:07:36;11.82;;;8.50;;
52468;SDS011;38381;53.688;10.776;2023-02-22T11:12:38;13.27;;;9.57;;
52468;SDS011;38381;53.688;10.776;2023-02-22T11:17:41;11.10;;;8.05;;
52468;SDS011;38381;53.688;10.776;2023-02-22T11:27:44;9.38;;;7.18;;
52468;SDS011;38381;53.688;10.776;2023-02-22T11:32:49;9.53;;;6.60;;
52468;SDS011;38381;53.688;10.776;2023-02-22T11:43:16;8.95;;;7.00;;
52468;SDS011;38381;53.688;10.776;2023-02-22T11:48:18;9.05;;;6.70;;
52468;SDS011;38381;53.688;10.776;2023-02-22T11:58:46;10.73;;;9.07;;
52468;SDS011;38381;53.688;10.776;2023-02-22T12:09:23;9.45;;;8.13;;
52468;SDS011;38381;53.688;10.776;2023-02-22T12:14:38;12.77;;;8.38;;
52468;SDS011;38381;53.688;10.776;2023-02-22T12:19:48;10.88;;;7.50;;
52468;SDS011;38381;53.688;10.776;2023-02-22T12:25:35;9.65;;;7.55;;
52468;SDS011;38381;53.688;10.776;2023-02-22T12:30:31;9.77;;;7.45;;
52468;SDS011;38381;53.688;10.776;2023-02-22T12:35:36;12.32;;;7.50;;
52468;SDS011;38381;53.688;10.776;2023-02-22T12:40:46;15.50;;;7.97;;
52468;SDS011;38381;53.688;10.776;2023-02-22T12:56:27;10.32;;;7.78;;
52468;SDS011;38381;53.688;10.776;2023-02-22T13:01:43;11.50;;;8.93;;
52468;SDS011;38381;53.688;10.776;2023-02-22T13:12:12;9.82;;;8.05;;
52468;SDS011;38381;53.688;10.776;2023-02-22T13:23:06;14.57;;;8.50;;
52468;SDS011;38381;53.688;10.776;2023-02-22T13:33:47;10.27;;;7.45;;
52468;SDS011;38381;53.688;10.776;2023-02-22T13:44:41;7.65;;;6.32;;
52468;SDS011;38381;53.688;10.776;2023-02-22T13:55:46;8.60;;;7.28;;
52468;SDS011;38381;53.688;10.776;2023-02-22T14:00:52;10.38;;;7.65;;
52468;SDS011;38381;53.688;10.776;2023-02-22T14:05:55;11.13;;;8.27;;
52468;SDS011;38381;53.688;10.776;2023-02-22T14:11:00;8.85;;;7.25;;
52468;SDS011;38381;53.688;10.776;2023-02-22T14:21:08;8.23;;;7.07;;
52468;SDS011;38381;53.688;10.776;2023-02-22T14:31:18;11.18;;;7.78;;
52468;SDS011;38381;53.688;10.776;2023-02-22T14:36:21;12.40;;;8.55;;
52468;SDS011;38381;53.688;10.776;2023-02-22T14:41:26;11.00;;;7.15;;
52468;SDS011;38381;53.688;10.776;2023-02-22T14:46:30;9.77;;;6.80;;
52468;SDS011;38381;53.688;10.776;2023-02-22T14:51:42;8.20;;;6.70;;
52468;SDS011;38381;53.688;10.776;2023-02-22T15:02:13;6.70;;;6.00;;
52468;SDS011;38381;53.688;10.776;2023-02-22T15:07:28;6.05;;;5.03;;
52468;SDS011;38381;53.688;10.776;2023-02-22T15:12:30;7.30;;;6.13;;
52468;SDS011;38381;53.688;10.776;2023-02-22T15:17:30;6.32;;;5.35;;
52468;SDS011;38381;53.688;10.776;2023-02-22T15:22:33;5.40;;;4.75;;
52468;SDS011;38381;53.688;10.776;2023-02-22T15:27:35;7.47;;;5.72;;
52468;SDS011;38381;53.688;10.776;2023-02-22T15:32:37;8.65;;;6.00;;
52468;SDS011;38381;53.688;10.776;2023-02-22T15:37:39;8.10;;;6.70;;
52468;SDS011;38381;53.688;10.776;2023-02-22T15:42:47;5.78;;;4.97;;
52468;SDS011;38381;53.688;10.776;2023-02-22T15:47:49;15.07;;;5.53;;
52468;SDS011;38381;53.688;10.776;2023-02-22T15:58:06;6.47;;;5.20;;
52468;SDS011;38381;53.688;10.776;2023-02-22T16:03:11;7.47;;;6.20;;
52468;SDS011;38381;53.688;10.776;2023-02-22T16:08:16;6.63;;;5.43;;
52468;SDS011;38381;53.688;10.776;2023-02-22T16:13:23;9.20;;;6.13;;
52468;SDS011;38381;53.688;10.776;2023-02-22T16:18:33;6.03;;;4.70;;
52468;SDS011;38381;53.688;10.776;2023-02-22T16:23:48;9.23;;;6.10;;
52468;SDS011;38381;53.688;10.776;2023-02-22T16:28:54;6.53;;;4.80;;
52468;SDS011;38381;53.688;10.776;2023-02-22T16:33:59;7.10;;;6.40;;
52468;SDS011;38381;53.688;10.776;2023-02-22T16:39:01;7.97;;;6.47;;
52468;SDS011;38381;53.688;10.776;2023-02-22T16:44:01;9.23;;;6.30;;
52468;SDS011;38381;53.688;10.776;2023-02-22T16:49:02;8.48;;;5.63;;
52468;SDS011;38381;53.688;10.776;2023-02-22T16:54:04;11.85;;;6.95;;
52468;SDS011;38381;53.688;10.776;2023-02-22T16:59:07;8.13;;;7.20;;
52468;SDS011;38381;53.688;10.776;2023-02-22T17:09:19;6.55;;;5.65;;
52468;SDS011;38381;53.688;10.776;2023-02-22T17:14:23;12.07;;;6.00;;
52468;SDS011;38381;53.688;10.776;2023-02-22T17:19:29;7.55;;;6.18;;
52468;SDS011;38381;53.688;10.776;2023-02-22T17:24:30;8.57;;;6.82;;
52468;SDS011;38381;53.688;10.776;2023-02-22T17:29:33;8.23;;;6.45;;
52468;SDS011;38381;53.688;10.776;2023-02-22T17:34:33;9.20;;;5.43;;
52468;SDS011;38381;53.688;10.776;2023-02-22T17:39:33;11.18;;;6.25;;
52468;SDS011;38381;53.688;10.776;2023-02-22T17:44:34;9.63;;;6.38;;
52468;SDS011;38381;53.688;10.776;2023-02-22T17:49:34;10.40;;;6.30;;
52468;SDS011;38381;53.688;10.776;2023-02-22T17:54:35;8.67;;;5.70;;
52468;SDS011;38381;53.688;10.776;2023-02-22T17:59:35;9.60;;;5.33;;
52468;SDS011;38381;53.688;10.776;2023-02-22T18:04:36;7.05;;;6.32;;
52468;SDS011;38381;53.688;10.776;2023-02-22T18:09:38;7.80;;;5.45;;
52468;SDS011;38381;53.688;10.776;2023-02-22T18:14:41;7.07;;;5.30;;
52468;SDS011;38381;53.688;10.776;2023-02-22T18:19:41;10.40;;;6.38;;
52468;SDS011;38381;53.688;10.776;2023-02-22T18:24:42;10.98;;;7.57;;
52468;SDS011;38381;53.688;10.776;2023-02-22T18:29:42;8.90;;;5.40;;
52468;SDS011;38381;53.688;10.776;2023-02-22T18:34:43;12.48;;;5.88;;
52468;SDS011;38381;53.688;10.776;2023-02-22T18:39:44;13.35;;;7.60;;
52468;SDS011;38381;53.688;10.776;2023-02-22T18:44:45;17.13;;;8.25;;
52468;SDS011;38381;53.688;10.776;2023-02-22T18:49:45;9.23;;;8.27;;
52468;SDS011;38381;53.688;10.776;2023-02-22T18:54:47;9.70;;;6.00;;
52468;SDS011;38381;53.688;10.776;2023-02-22T18:59:49;10.40;;;6.28;;
52468;SDS011;38381;53.688;10.776;2023-02-22T19:04:49;8.68;;;5.15;;
52468;SDS011;38381;53.688;10.776;2023-02-22T19:09:49;8.75;;;4.95;;
52468;SDS011;38381;53.688;10.776;2023-02-22T19:14:50;13.98;;;6.43;;
52468;SDS011;38381;53.688;10.776;2023-02-22T19:19:51;10.70;;;5.50;;
52468;SDS011;38381;53.688;10.776;2023-02-22T19:24:52;10.10;;;6.63;;
52468;SDS011;38381;53.688;10.776;2023-02-22T19:29:53;10.48;;;4.85;;
52468;SDS011;38381;53.688;10.776;2023-02-22T19:34:53;8.02;;;6.20;;
52468;SDS011;38381;53.688;10.776;2023-02-22T19:40:02;8.57;;;5.20;;
52468;SDS011;38381;53.688;10.776;2023-02-22T19:45:06;7.40;;;4.90;;
52468;SDS011;38381;53.688;10.776;2023-02-22T19:50:07;9.65;;;7.50;;
52468;SDS011;38381;53.688;10.776;2023-02-22T19:55:07;10.63;;;6.95;;
52468;SDS011;38381;53.688;10.776;2023-02-22T20:00:12;9.25;;;5.68;;
52468;SDS011;38381;53.688;10.776;2023-02-22T20:05:21;9.82;;;5.30;;
52468;SDS011;38381;53.688;10.776;2023-02-22T20:10:21;18.13;;;6.00;;
52468;SDS011;38381;53.688;10.776;2023-02-22T20:15:22;12.27;;;5.85;;
52468;SDS011;38381;53.688;10.776;2023-02-22T20:20:23;10.60;;;5.85;;
52468;SDS011;38381;53.688;10.776;2023-02-22T20:25:25;12.02;;;8.20;;
52468;SDS011;38381;53.688;10.776;2023-02-22T20:30:25;11.88;;;7.07;;
52468;SDS011;38381;53.688;10.776;2023-02-22T20:35:26;14.98;;;6.80;;
52468;SDS011;38381;53.688;10.776;2023-02-22T20:40:27;12.93;;;6.22;;
52468;SDS011;38381;53.688;10.776;2023-02-22T20:45:27;8.95;;;5.47;;
52468;SDS011;38381;53.688;10.776;2023-02-22T20:50:27;10.05;;;6.43;;
52468;SDS011;38381;53.688;10.776;2023-02-22T20:55:28;13.27;;;8.20;;
52468;SDS011;38381;53.688;10.776;2023-02-22T21:00:29;9.65;;;6.05;;
52468;SDS011;38381;53.688;10.776;2023-02-22T21:05:29;7.18;;;5.85;;
52468;SDS011;38381;53.688;10.776;2023-02-22T21:10:31;13.83;;;6.00;;
52468;SDS011;38381;53.688;10.776;2023-02-22T21:15:39;12.95;;;7.10;;
52468;SDS011;38381;53.688;10.776;2023-02-22T21:20:42;14.38;;;5.97;;
52468;SDS011;38381;53.688;10.776;2023-02-22T21:25:49;13.68;;;6.10;;
52468;SDS011;38381;53.688;10.776;2023-02-22T21:30:51;8.02;;;5.15;;
52468;SDS011;38381;53.688;10.776;2023-02-22T21:35:51;9.10;;;6.47;;
52468;SDS011;38381;53.688;10.776;2023-02-22T21:40:51;9.63;;;6.70;;
52468;SDS011;38381;53.688;10.776;2023-02-22T21:46:00;11.75;;;7.00;;
52468;SDS011;38381;53.688;10.776;2023-02-22T21:51:08;10.35;;;5.72;;
52468;SDS011;38381;53.688;10.776;2023-02-22T21:56:15;7.63;;;5.15;;
52468;SDS011;38381;53.688;10.776;2023-02-22T22:01:20;10.45;;;5.38;;
52468;SDS011;38381;53.688;10.776;2023-02-22T22:06:20;12.82;;;5.85;;
52468;SDS011;38381;53.688;10.776;2023-02-22T22:11:21;9.85;;;6.47;;
52468;SDS011;38381;53.688;10.776;2023-02-22T22:16:24;7.82;;;5.55;;
52468;SDS011;38381;53.688;10.776;2023-02-22T22:21:25;7.93;;;5.07;;
52468;SDS011;38381;53.688;10.776;2023-02-22T22:26:26;10.90;;;5.55;;
52468;SDS011;38381;53.688;10.776;2023-02-22T22:31:26;9.95;;;5.90;;
52468;SDS011;38381;53.688;10.776;2023-02-22T22:36:27;13.30;;;4.97;;
52468;SDS011;38381;53.688;10.776;2023-02-22T22:41:27;8.63;;;6.18;;
52468;SDS011;38381;53.688;10.776;2023-02-22T22:46:28;11.30;;;5.80;;
52468;SDS011;38381;53.688;10.776;2023-02-22T22:51:28;9.63;;;5.15;;
52468;SDS011;38381;53.688;10.776;2023-02-22T22:56:30;12.27;;;5.80;;
52468;SDS011;38381;53.688;10.776;2023-02-22T23:01:35;10.68;;;5.55;;
52468;SDS011;38381;53.688;10.776;2023-02-22T23:06:39;12.10;;;4.47;;
52468;SDS011;38381;53.688;10.776;2023-02-22T23:11:41;6.25;;;4.72;;
52468;SDS011;38381;53.688;10.776;2023-02-22T23:16:44;5.68;;;4.28;;
52468;SDS011;38381;53.688;10.776;2023-02-22T23:21:46;7.23;;;5.57;;
52468;SDS011;38381;53.688;10.776;2023-02-22T23:26:47;4.50;;;4.10;;
52468;SDS011;38381;53.688;10.776;2023-02-22T23:31:48;8.60;;;4.53;;
52468;SDS011;38381;53.688;10.776;2023-02-22T23:36:49;13.57;;;5.57;;
52468;SDS011;38381;53.688;10.776;2023-02-22T23:41:54;6.90;;;5.10;;
52468;SDS011;38381;53.688;10.776;2023-02-22T23:46:58;9.10;;;4.50;;
52468;SDS011;38381;53.688;10.776;2023-02-22T23:51:58;7.07;;;4.28;;
52468;SDS011;38381;53.688;10.776;2023-02-22T23:56:59;16.07;;;4.33;;
